createdAt,value
2018-09-15T00:00:05.353Z,8.13
2018-09-15T00:02:39.841Z,7.10
2018-09-15T00:05:18.272Z,7.23
2018-09-15T00:07:53.001Z,7.10
2018-09-15T00:10:27.785Z,6.70
2018-09-15T00:13:03.854Z,6.00
2018-09-15T00:15:38.355Z,5.23
2018-09-15T00:18:14.599Z,6.87
2018-09-15T00:20:48.861Z,5.97
2018-09-15T00:23:23.420Z,6.10
2018-09-15T00:25:58.221Z,5.87
2018-09-15T00:28:33.049Z,5.50
2018-09-15T00:31:07.882Z,5.90
2018-09-15T00:33:42.953Z,5.90
2018-09-15T00:36:18.174Z,4.87
2018-09-15T00:38:52.400Z,5.37
2018-09-15T00:41:27.605Z,6.03
2018-09-15T00:44:02.312Z,5.40
2018-09-15T00:46:37.132Z,5.03
2018-09-15T00:49:11.807Z,5.60
2018-09-15T00:51:46.247Z,5.20
2018-09-15T00:54:20.886Z,5.80
2018-09-15T00:56:55.972Z,4.43
2018-09-15T00:59:30.592Z,6.37
2018-09-15T01:02:05.235Z,6.63
2018-09-15T01:04:40.362Z,5.67
2018-09-15T01:07:15.018Z,4.67
2018-09-15T01:09:49.688Z,5.83
2018-09-15T01:12:25.341Z,6.27
2018-09-15T01:15:00.037Z,5.70
2018-09-15T01:17:34.783Z,5.23
2018-09-15T01:20:09.564Z,5.90
2018-09-15T01:22:44.207Z,5.40
2018-09-15T01:25:19.093Z,5.40
2018-09-15T01:27:53.472Z,4.70
2018-09-15T01:30:28.158Z,4.37
2018-09-15T01:33:03.175Z,5.10
2018-09-15T01:35:37.580Z,5.33
2018-09-15T01:38:12.354Z,6.60
2018-09-15T01:40:47.067Z,5.23
2018-09-15T01:43:21.830Z,4.60
2018-09-15T01:45:56.546Z,5.17
2018-09-15T01:48:31.299Z,4.83
2018-09-15T01:51:06.193Z,4.83
2018-09-15T01:53:41.082Z,5.00
2018-09-15T01:56:15.596Z,5.93
2018-09-15T01:58:50.303Z,4.57
2018-09-15T02:01:25.001Z,5.40
2018-09-15T02:03:59.692Z,5.20
2018-09-15T02:06:34.340Z,4.77
2018-09-15T02:09:11.687Z,5.40
2018-09-15T02:11:46.764Z,5.67
2018-09-15T02:14:21.474Z,4.53
2018-09-15T02:16:56.238Z,4.33
2018-09-15T02:19:30.745Z,4.40
2018-09-15T02:22:05.920Z,4.80
2018-09-15T02:24:41.160Z,5.03
2018-09-15T02:27:16.285Z,6.17
2018-09-15T02:29:51.448Z,4.70
2018-09-15T02:32:26.693Z,5.93
2018-09-15T02:35:03.223Z,4.97
2018-09-15T02:37:38.057Z,4.67
2018-09-15T02:40:13.020Z,5.37
2018-09-15T02:42:47.421Z,5.50
2018-09-15T02:45:22.448Z,5.90
2018-09-15T02:47:56.980Z,5.07
2018-09-15T02:50:31.631Z,5.50
2018-09-15T02:53:07.043Z,5.80
2018-09-15T02:55:42.104Z,5.50
2018-09-15T02:58:17.136Z,5.37
2018-09-15T03:00:52.340Z,5.10
2018-09-15T03:03:27.329Z,5.37
2018-09-15T03:06:02.113Z,5.37
2018-09-15T03:08:36.575Z,5.53
2018-09-15T03:11:11.352Z,5.77
2018-09-15T03:13:46.096Z,5.03
2018-09-15T03:16:20.883Z,5.30
2018-09-15T03:18:55.816Z,5.90
2018-09-15T03:21:31.217Z,5.73
2018-09-15T03:24:06.090Z,6.20
2018-09-15T03:26:41.505Z,5.07
2018-09-15T03:29:16.565Z,5.73
2018-09-15T03:31:51.214Z,6.00
2018-09-15T03:34:25.784Z,6.47
2018-09-15T03:37:00.557Z,6.53
2018-09-15T03:39:35.389Z,6.60
2018-09-15T03:42:09.904Z,5.43
2018-09-15T03:44:45.256Z,5.80
2018-09-15T03:47:19.889Z,5.70
2018-09-15T03:49:54.289Z,6.20
2018-09-15T03:52:28.640Z,5.40
2018-09-15T03:55:03.537Z,5.80
2018-09-15T03:57:38.264Z,5.40
2018-09-15T04:00:12.888Z,6.93
2018-09-15T04:02:47.624Z,6.67
2018-09-15T04:05:22.405Z,8.57
2018-09-15T04:07:57.075Z,6.33
2018-09-15T04:10:31.800Z,6.20
2018-09-15T04:13:06.644Z,6.90
2018-09-15T04:15:40.879Z,6.90
2018-09-15T04:18:16.568Z,6.53
2018-09-15T04:20:51.180Z,8.63
2018-09-15T04:23:26.763Z,8.83
2018-09-15T04:26:01.675Z,8.80
2018-09-15T04:28:36.098Z,8.00
2018-09-15T04:31:11.052Z,9.23
2018-09-15T04:33:45.190Z,9.13
2018-09-15T04:36:19.756Z,8.53
2018-09-15T04:38:54.381Z,8.73
2018-09-15T04:41:29.033Z,10.43
2018-09-15T04:44:03.801Z,10.27
2018-09-15T04:46:38.490Z,10.03
2018-09-15T04:49:13.215Z,8.90
2018-09-15T04:51:47.945Z,9.20
2018-09-15T04:54:22.652Z,11.30
2018-09-15T04:56:57.592Z,10.40
2018-09-15T04:59:32.264Z,11.60
2018-09-15T05:02:07.121Z,11.23
2018-09-15T05:04:41.325Z,14.17
2018-09-15T05:07:16.876Z,13.70
2018-09-15T05:09:52.020Z,15.23
2018-09-15T05:12:27.982Z,12.40
2018-09-15T05:15:02.630Z,14.80
2018-09-15T05:17:37.220Z,19.13
2018-09-15T05:20:12.272Z,19.90
2018-09-15T05:22:47.101Z,19.23
2018-09-15T05:25:21.624Z,17.83
2018-09-15T05:27:57.419Z,20.33
2018-09-15T05:30:33.084Z,25.80
2018-09-15T05:33:07.748Z,25.00
2018-09-15T05:35:42.425Z,21.67
2018-09-15T05:38:17.272Z,21.40
2018-09-15T05:40:51.996Z,19.47
2018-09-15T05:43:26.653Z,23.67
2018-09-15T05:46:01.505Z,22.23
2018-09-15T05:48:35.960Z,21.30
2018-09-15T05:51:10.584Z,24.70
2018-09-15T05:53:45.289Z,23.93
2018-09-15T05:56:19.847Z,24.07
2018-09-15T05:58:54.741Z,25.97
2018-09-15T06:01:29.517Z,28.33
2018-09-15T06:04:04.141Z,23.13
2018-09-15T06:06:39.002Z,21.70
2018-09-15T06:09:13.350Z,22.17
2018-09-15T06:11:48.212Z,26.43
2018-09-15T06:14:23.070Z,27.40
2018-09-15T06:16:58.015Z,27.30
2018-09-15T06:19:32.868Z,26.40
2018-09-15T06:22:07.465Z,27.90
2018-09-15T06:24:42.224Z,24.80
2018-09-15T06:27:16.955Z,23.53
2018-09-15T06:29:51.852Z,23.67
2018-09-15T06:32:26.696Z,21.93
2018-09-15T06:35:01.337Z,26.13
2018-09-15T06:37:39.270Z,24.00
2018-09-15T06:40:15.148Z,21.40
2018-09-15T06:42:49.938Z,22.40
2018-09-15T06:45:25.476Z,22.87
2018-09-15T06:48:00.169Z,22.60
2018-09-15T06:50:35.106Z,21.70
2018-09-15T06:53:09.900Z,22.60
2018-09-15T06:55:44.669Z,22.50
2018-09-15T06:58:19.229Z,21.90
2018-09-15T07:00:53.993Z,23.17
2018-09-15T07:03:29.178Z,22.57
2018-09-15T07:06:03.801Z,23.23
2018-09-15T07:08:38.252Z,24.93
2018-09-15T07:11:13.081Z,22.33
2018-09-15T07:13:47.964Z,20.90
2018-09-15T07:16:22.877Z,21.73
2018-09-15T07:18:57.604Z,23.50
2018-09-15T07:21:32.035Z,22.20
2018-09-15T07:24:06.740Z,19.90
2018-09-15T07:26:41.393Z,19.67
2018-09-15T07:29:16.233Z,20.20
2018-09-15T07:31:50.884Z,20.13
2018-09-15T07:34:25.386Z,20.17
2018-09-15T07:37:00.383Z,19.27
2018-09-15T07:39:34.668Z,20.23
2018-09-15T07:42:09.514Z,19.80
2018-09-15T07:44:44.346Z,20.33
2018-09-15T07:47:19.641Z,18.43
2018-09-15T07:49:54.093Z,20.30
2018-09-15T07:52:30.903Z,17.37
2018-09-15T07:55:05.829Z,16.97
2018-09-15T07:57:40.316Z,16.17
2018-09-15T08:00:15.366Z,17.07
2018-09-15T08:02:49.629Z,17.87
2018-09-15T08:05:25.756Z,16.70
2018-09-15T08:08:00.234Z,17.20
2018-09-15T08:10:34.988Z,15.63
2018-09-15T08:13:09.647Z,15.57
2018-09-15T08:15:44.509Z,16.00
2018-09-15T08:18:19.051Z,15.47
2018-09-15T08:20:54.267Z,16.87
2018-09-15T08:23:28.609Z,16.67
2018-09-15T08:26:03.461Z,15.30
2018-09-15T08:28:38.063Z,16.00
2018-09-15T08:31:12.755Z,17.50
2018-09-15T08:33:47.558Z,17.33
2018-09-15T08:36:22.353Z,16.93
2018-09-15T08:38:56.741Z,19.03
2018-09-15T08:41:31.374Z,19.60
2018-09-15T08:44:06.842Z,17.13
2018-09-15T08:46:41.796Z,15.70
2018-09-15T08:49:16.390Z,18.13
2018-09-15T08:51:51.388Z,17.60
2018-09-15T08:54:26.277Z,18.40
2018-09-15T08:57:00.526Z,15.70
2018-09-15T08:59:40.233Z,18.53
2018-09-15T09:02:14.743Z,16.33
2018-09-15T09:04:49.406Z,18.40
2018-09-15T09:07:24.168Z,14.73
2018-09-15T09:09:59.305Z,16.70
2018-09-15T09:12:34.101Z,17.10
2018-09-15T09:15:09.116Z,14.77
2018-09-15T09:17:43.489Z,15.23
2018-09-15T09:20:18.197Z,14.47
2018-09-15T09:22:54.748Z,14.10
2018-09-15T09:25:29.886Z,12.20
2018-09-15T09:28:04.408Z,14.97
2018-09-15T09:30:38.963Z,13.80
2018-09-15T09:33:13.715Z,15.73
2018-09-15T09:35:48.358Z,12.17
2018-09-15T09:38:22.829Z,11.90
2018-09-15T09:40:57.340Z,11.70
2018-09-15T09:43:32.197Z,10.70
2018-09-15T09:46:07.236Z,13.00
2018-09-15T09:48:41.350Z,12.57
2018-09-15T09:51:16.048Z,12.90
2018-09-15T09:53:51.332Z,11.67
2018-09-15T09:56:26.364Z,12.90
2018-09-15T09:59:01.576Z,12.67
2018-09-15T10:01:42.844Z,12.07
2018-09-15T10:04:17.683Z,12.27
2018-09-15T10:06:51.926Z,12.30
2018-09-15T10:09:26.620Z,11.77
2018-09-15T10:12:01.372Z,11.13
2018-09-15T10:14:36.148Z,11.40
2018-09-15T10:17:10.815Z,12.67
2018-09-15T10:19:46.264Z,12.40
2018-09-15T10:22:20.901Z,11.50
2018-09-15T10:24:55.821Z,10.37
2018-09-15T10:27:30.140Z,12.00
2018-09-15T10:30:04.936Z,11.90
2018-09-15T10:32:39.582Z,11.80
2018-09-15T10:35:13.969Z,12.30
2018-09-15T10:37:48.697Z,11.93
2018-09-15T10:40:23.401Z,10.13
2018-09-15T10:42:57.849Z,10.47
2018-09-15T10:45:33.181Z,11.07
2018-09-15T10:48:08.200Z,12.57
2018-09-15T10:50:43.806Z,11.23
2018-09-15T10:53:19.049Z,12.90
2018-09-15T10:55:53.864Z,10.87
2018-09-15T10:58:28.040Z,11.10
2018-09-15T11:01:02.788Z,12.03
2018-09-15T11:03:37.653Z,9.87
2018-09-15T11:06:12.665Z,8.70
2018-09-15T11:08:47.409Z,10.40
2018-09-15T11:11:21.556Z,9.60
2018-09-15T11:13:56.500Z,10.17
2018-09-15T11:16:31.223Z,9.37
2018-09-15T11:19:06.148Z,9.17
2018-09-15T11:21:41.658Z,8.70
2018-09-15T11:24:16.926Z,7.27
2018-09-15T11:26:51.461Z,10.00
2018-09-15T11:29:26.163Z,9.07
2018-09-15T11:32:02.861Z,7.73
2018-09-15T11:34:39.326Z,7.00
2018-09-15T11:37:13.878Z,7.03
2018-09-15T11:39:48.438Z,6.13
2018-09-15T11:42:22.817Z,6.63
2018-09-15T11:44:57.516Z,7.03
2018-09-15T11:47:32.010Z,6.80
2018-09-15T11:50:06.863Z,6.30
2018-09-15T11:52:41.508Z,6.23
2018-09-15T11:55:23.362Z,7.07
2018-09-15T11:57:58.261Z,6.27
2018-09-15T12:00:35.074Z,7.07
2018-09-15T12:03:10.277Z,7.03
2018-09-15T12:05:45.164Z,6.07
2018-09-15T12:08:20.104Z,6.30
2018-09-15T12:10:54.248Z,6.80
2018-09-15T12:13:29.207Z,6.97
2018-09-15T12:16:03.698Z,6.00
2018-09-15T12:18:41.245Z,7.87
2018-09-15T12:21:16.298Z,7.40
2018-09-15T12:23:50.417Z,6.83
2018-09-15T12:26:25.180Z,7.60
2018-09-15T12:28:59.799Z,6.60
2018-09-15T12:31:34.539Z,6.70
2018-09-15T12:34:09.304Z,6.40
2018-09-15T12:36:43.920Z,6.40
2018-09-15T12:39:18.760Z,6.57
2018-09-15T12:41:53.408Z,6.00
2018-09-15T12:44:28.159Z,7.40
2018-09-15T12:47:02.822Z,6.67
2018-09-15T12:49:37.464Z,6.67
2018-09-15T12:52:12.217Z,6.93
2018-09-15T12:54:46.832Z,5.93
2018-09-15T12:57:21.580Z,7.03
2018-09-15T12:59:56.212Z,6.27
2018-09-15T13:02:30.804Z,7.00
2018-09-15T13:05:05.517Z,6.43
2018-09-15T13:07:40.569Z,5.97
2018-09-15T13:10:14.809Z,6.23
2018-09-15T13:12:49.168Z,6.27
2018-09-15T13:15:24.414Z,6.37
2018-09-15T13:17:59.149Z,5.40
2018-09-15T13:20:33.580Z,6.03
2018-09-15T13:23:09.314Z,5.80
2018-09-15T13:25:43.901Z,6.60
2018-09-15T13:28:19.253Z,5.43
2018-09-15T13:30:53.735Z,5.23
2018-09-15T13:33:28.328Z,6.60
2018-09-15T13:36:03.236Z,6.90
2018-09-15T13:38:38.006Z,5.53
2018-09-15T13:41:12.834Z,5.60
2018-09-15T13:43:48.108Z,5.80
2018-09-15T13:46:22.874Z,6.30
2018-09-15T13:48:57.354Z,5.33
2018-09-15T13:51:32.104Z,5.40
2018-09-15T13:54:07.002Z,5.10
2018-09-15T13:56:41.372Z,5.70
2018-09-15T13:59:15.997Z,5.73
2018-09-15T14:01:50.735Z,6.17
2018-09-15T14:04:25.113Z,6.07
2018-09-15T14:06:59.947Z,5.77
2018-09-15T14:09:43.287Z,5.27
2018-09-15T14:12:09.149Z,5.17
2018-09-15T14:14:43.780Z,5.87
2018-09-15T14:17:18.300Z,4.97
2018-09-15T14:19:53.174Z,5.33
2018-09-15T14:22:27.825Z,5.80
2018-09-15T14:25:02.433Z,5.33
2018-09-15T14:27:36.952Z,5.90
2018-09-15T14:30:11.788Z,5.80
2018-09-15T14:32:46.380Z,6.03
2018-09-15T14:35:21.367Z,5.63
2018-09-15T14:37:56.604Z,6.83
2018-09-15T14:40:31.692Z,6.03
2018-09-15T14:43:06.855Z,6.07
2018-09-15T14:45:41.061Z,6.00
2018-09-15T14:48:15.761Z,6.33
2018-09-15T14:50:50.760Z,7.60
2018-09-15T14:53:25.005Z,6.77
2018-09-15T14:55:59.656Z,5.97
2018-09-15T14:58:34.376Z,6.17
2018-09-15T15:01:09.569Z,5.20
2018-09-15T15:03:44.055Z,5.23
2018-09-15T15:06:18.728Z,5.50
2018-09-15T15:08:53.288Z,6.20
2018-09-15T15:11:28.068Z,5.43
2018-09-15T15:14:02.831Z,5.80
2018-09-15T15:16:37.664Z,5.60
2018-09-15T15:19:12.788Z,6.10
2018-09-15T15:21:46.976Z,5.20
2018-09-15T15:24:21.587Z,5.80
2018-09-15T15:26:56.395Z,7.50
2018-09-15T15:29:31.168Z,7.10
2018-09-15T15:32:05.884Z,6.13
2018-09-15T15:34:40.319Z,9.00
2018-09-15T15:37:15.261Z,7.17
2018-09-15T15:39:49.910Z,5.80
2018-09-15T15:42:24.640Z,5.10
2018-09-15T15:44:59.217Z,5.00
2018-09-15T15:47:33.768Z,5.03
2018-09-15T15:50:08.704Z,5.10
2018-09-15T15:52:44.168Z,5.20
2018-09-15T15:55:19.055Z,5.03
2018-09-15T15:57:53.755Z,5.10
2018-09-15T16:00:28.389Z,5.27
2018-09-15T16:03:02.801Z,5.27
2018-09-15T16:05:37.489Z,5.60
2018-09-15T16:08:12.402Z,4.50
2018-09-15T16:10:47.423Z,5.47
2018-09-15T16:13:22.197Z,4.70
2018-09-15T16:15:56.913Z,5.17
2018-09-15T16:18:31.577Z,5.60
2018-09-15T16:21:06.234Z,6.00
2018-09-15T16:23:41.062Z,5.10
2018-09-15T16:26:15.961Z,6.03
2018-09-15T16:28:50.663Z,5.00
2018-09-15T16:31:25.439Z,5.67
2018-09-15T16:34:00.276Z,4.87
2018-09-15T16:36:34.782Z,4.90
2018-09-15T16:39:11.233Z,4.43
2018-09-15T16:41:45.365Z,5.87
2018-09-15T16:44:20.016Z,6.13
2018-09-15T16:46:54.695Z,5.73
2018-09-15T16:49:29.923Z,5.73
2018-09-15T16:52:04.424Z,5.00
2018-09-15T16:54:38.953Z,5.37
2018-09-15T16:57:13.778Z,4.97
2018-09-15T16:59:48.526Z,5.37
2018-09-15T17:02:22.980Z,5.20
2018-09-15T17:04:57.817Z,6.97
2018-09-15T17:07:32.861Z,5.87
2018-09-15T17:10:07.319Z,5.50
2018-09-15T17:12:42.131Z,5.70
2018-09-15T17:15:16.864Z,5.50
2018-09-15T17:17:51.472Z,5.90
2018-09-15T17:20:26.122Z,6.37
2018-09-15T17:23:00.945Z,5.20
2018-09-15T17:25:35.943Z,5.73
2018-09-15T17:28:10.604Z,6.33
2018-09-15T17:30:45.204Z,6.57
2018-09-15T17:33:19.864Z,6.77
2018-09-15T17:35:54.531Z,6.20
2018-09-15T17:38:29.193Z,7.87
2018-09-15T17:41:03.935Z,5.97
2018-09-15T17:43:38.712Z,5.80
2018-09-15T17:46:13.510Z,5.70
2018-09-15T17:48:47.879Z,5.20
2018-09-15T17:51:22.689Z,6.50
2018-09-15T17:53:57.578Z,5.60
2018-09-15T17:56:32.614Z,6.40
2018-09-15T17:59:06.966Z,5.37
2018-09-15T18:01:41.955Z,6.33
2018-09-15T18:04:16.273Z,7.47
2018-09-15T18:06:51.366Z,5.90
2018-09-15T18:09:26.027Z,5.40
2018-09-15T18:12:01.187Z,4.17
2018-09-15T18:14:35.614Z,5.07
2018-09-15T18:17:10.293Z,5.30
2018-09-15T18:19:45.261Z,4.77
2018-09-15T18:22:19.684Z,6.60
2018-09-15T18:24:54.600Z,5.73
2018-09-15T18:27:29.357Z,5.30
2018-09-15T18:30:04.191Z,5.77
2018-09-15T18:32:39.236Z,5.17
2018-09-15T18:35:13.891Z,4.97
2018-09-15T18:37:49.574Z,5.27
2018-09-15T18:40:24.588Z,5.50
2018-09-15T18:42:58.881Z,4.67
2018-09-15T18:45:33.802Z,5.33
2018-09-15T18:48:08.955Z,5.73
2018-09-15T18:50:44.646Z,5.00
2018-09-15T18:53:19.774Z,5.20
2018-09-15T18:55:54.365Z,5.57
2018-09-15T18:58:29.252Z,5.40
2018-09-15T19:01:04.047Z,6.40
2018-09-15T19:03:39.424Z,6.70
2018-09-15T19:06:13.882Z,6.40
2018-09-15T19:08:49.599Z,7.10
2018-09-15T19:11:24.402Z,6.00
2018-09-15T19:13:59.520Z,7.60
2018-09-15T19:16:34.827Z,5.77
2018-09-15T19:19:09.320Z,5.63
2018-09-15T19:21:44.221Z,7.83
2018-09-15T19:24:18.793Z,7.30
2018-09-15T19:26:53.697Z,6.60
2018-09-15T19:29:28.176Z,7.43
2018-09-15T19:32:02.979Z,8.07
2018-09-15T19:34:37.656Z,7.90
2018-09-15T19:37:12.363Z,6.70
2018-09-15T19:39:47.110Z,7.63
2018-09-15T19:42:21.711Z,8.17
2018-09-15T19:44:56.290Z,7.60
2018-09-15T19:47:31.012Z,8.63
2018-09-15T19:50:05.569Z,8.70
2018-09-15T19:52:40.073Z,7.07
2018-09-15T19:55:14.565Z,8.83
2018-09-15T19:57:49.346Z,7.70
2018-09-15T20:00:24.190Z,8.80
2018-09-15T20:02:59.968Z,8.97
2018-09-15T20:05:34.279Z,8.90
2018-09-15T20:08:08.987Z,9.50
2018-09-15T20:10:44.543Z,9.13
2018-09-15T20:13:19.380Z,11.00
2018-09-15T20:15:52.131Z,8.67
2018-09-15T20:18:25.496Z,10.90
2018-09-15T20:20:59.027Z,11.83
2018-09-15T20:23:34.683Z,14.10
2018-09-15T20:26:09.965Z,13.20
2018-09-15T20:28:44.630Z,11.57
2018-09-15T20:31:19.286Z,12.30
2018-09-15T20:33:54.138Z,12.70
2018-09-15T20:36:28.998Z,14.60
2018-09-15T20:39:07.600Z,14.03
2018-09-15T20:41:42.573Z,14.77
2018-09-15T20:44:17.264Z,12.97
2018-09-15T20:46:52.010Z,14.00
2018-09-15T20:49:26.581Z,15.13
2018-09-15T20:52:02.160Z,16.07
2018-09-15T20:54:37.515Z,14.23
2018-09-15T20:57:11.906Z,13.53
2018-09-15T20:59:46.505Z,14.80
2018-09-15T21:02:21.064Z,16.87
2018-09-15T21:04:56.881Z,14.93
2018-09-15T21:07:31.437Z,14.37
2018-09-15T21:10:06.674Z,14.27
2018-09-15T21:12:41.640Z,13.87
2018-09-15T21:15:16.613Z,13.70
2018-09-15T21:17:51.080Z,14.30
2018-09-15T21:20:25.660Z,13.30
2018-09-15T21:23:00.320Z,13.80
2018-09-15T21:25:34.925Z,12.60
2018-09-15T21:28:09.756Z,13.77
2018-09-15T21:30:44.560Z,12.20
2018-09-15T21:33:19.214Z,14.93
2018-09-15T21:35:53.948Z,12.53
2018-09-15T21:38:28.876Z,13.90
2018-09-15T21:41:03.202Z,14.73
2018-09-15T21:43:37.926Z,14.00
2018-09-15T21:46:12.783Z,14.20
2018-09-15T21:48:48.332Z,13.50
2018-09-15T21:51:23.794Z,13.50
2018-09-15T21:53:58.928Z,14.77
2018-09-15T21:56:33.783Z,15.53
2018-09-15T21:59:08.372Z,12.90
2018-09-15T22:01:43.013Z,13.17
2018-09-15T22:04:19.750Z,15.30
2018-09-15T22:06:54.331Z,12.93
2018-09-15T22:09:29.046Z,15.90
2018-09-15T22:12:03.659Z,15.23
2018-09-15T22:14:38.705Z,15.80
2018-09-15T22:17:13.748Z,16.00
2018-09-15T22:19:49.224Z,14.17
2018-09-15T22:22:24.264Z,12.90
2018-09-15T22:24:58.644Z,14.60
2018-09-15T22:27:33.324Z,14.33
2018-09-15T22:30:08.553Z,14.97
2018-09-15T22:32:44.184Z,14.07
2018-09-15T22:35:19.761Z,12.40
2018-09-15T22:37:54.836Z,14.40
2018-09-15T22:40:29.522Z,13.57
2018-09-15T22:43:04.144Z,14.63
2018-09-15T22:45:38.927Z,13.37
2018-09-15T22:48:13.715Z,16.07
2018-09-15T22:50:48.912Z,15.20
2018-09-15T22:53:23.994Z,14.23
2018-09-15T22:55:58.543Z,15.23
2018-09-15T22:58:33.376Z,14.83
2018-09-15T23:01:08.049Z,14.37
2018-09-15T23:03:42.604Z,15.27
2018-09-15T23:06:17.444Z,14.63
2018-09-15T23:08:52.954Z,14.47
2018-09-15T23:11:27.743Z,13.83
2018-09-15T23:14:03.104Z,13.77
2018-09-15T23:16:37.280Z,12.70
2018-09-15T23:19:12.519Z,14.47
2018-09-15T23:21:46.740Z,13.77
2018-09-15T23:24:23.016Z,14.10
2018-09-15T23:26:58.561Z,13.20
2018-09-15T23:29:32.777Z,13.70
2018-09-15T23:32:07.401Z,14.77
2018-09-15T23:34:42.990Z,13.67
2018-09-15T23:37:18.216Z,14.60
2018-09-15T23:39:52.461Z,15.37
2018-09-15T23:42:27.256Z,13.43
2018-09-15T23:45:02.179Z,14.47
2018-09-15T23:47:36.336Z,12.80
2018-09-15T23:50:10.913Z,12.83
2018-09-15T23:52:45.581Z,13.60
2018-09-15T23:55:21.063Z,13.70
2018-09-15T23:57:55.958Z,13.40
